Time;durP1;ratioP1;P1;durP2;ratioP2;P2;SDS_P1;SDS_P2;PMS_P1;PMS_P2;Temp;Humidity;BMP_temperature;BMP_pressure;BME280_temperature;BME280_humidity;BME280_pressure;Samples;Min_cycle;Max_cycle;Signal;HPM_P1;HPM_P2
2024/01/22 00:01:36;;;;;;;14.60;2.30;;;11.20;99.90;;;;;;6342097;22;20349;-87
2024/01/22 00:04:02;;;;;;;20.58;2.92;;;11.20;99.90;;;;;;6342031;22;20030;-86
2024/01/22 00:06:27;;;;;;;12.07;1.77;;;11.10;99.90;;;;;;6341929;22;20047;-86
2024/01/22 00:08:54;;;;;;;18.38;2.78;;;11.20;99.90;;;;;;6341885;22;20008;-86
2024/01/22 00:11:20;;;;;;;22.90;3.17;;;11.20;99.90;;;;;;6341815;22;19998;-85
2024/01/22 00:13:46;;;;;;;20.73;2.92;;;11.20;99.90;;;;;;6341805;22;20006;-85
2024/01/22 00:16:12;;;;;;;21.35;3.33;;;11.10;99.90;;;;;;6341883;22;20034;-84
2024/01/22 00:18:38;;;;;;;22.67;3.88;;;11.10;99.90;;;;;;6341794;22;20007;-86
2024/01/22 00:21:04;;;;;;;16.65;2.78;;;11.00;99.90;;;;;;6341630;22;20011;-86
2024/01/22 00:23:30;;;;;;;24.92;4.28;;;11.00;99.90;;;;;;6341588;22;20086;-87
2024/01/22 00:25:56;;;;;;;26.52;3.30;;;11.00;99.90;;;;;;6369673;22;20002;-84
2024/01/22 00:28:21;;;;;;;22.90;3.40;;;11.00;99.90;;;;;;6342074;22;20029;-85
2024/01/22 00:30:47;;;;;;;29.50;4.70;;;11.00;99.90;;;;;;6341497;22;20076;-84
2024/01/22 00:33:13;;;;;;;30.60;3.90;;;10.90;99.90;;;;;;6341548;22;20029;-87
2024/01/22 00:35:38;;;;;;;24.05;4.40;;;10.80;99.90;;;;;;6341354;22;20089;-85
2024/01/22 00:38:04;;;;;;;25.33;4.07;;;10.80;99.90;;;;;;6341669;22;20006;-84
2024/01/22 00:40:29;;;;;;;42.63;5.35;;;10.80;99.90;;;;;;6341576;22;20010;-84
2024/01/22 00:42:55;;;;;;;34.08;5.78;;;10.80;99.90;;;;;;6341714;22;20048;-84
2024/01/22 00:45:21;;;;;;;32.90;5.00;;;10.70;99.90;;;;;;6341563;22;20038;-83
2024/01/22 00:47:46;;;;;;;32.05;3.95;;;10.70;99.90;;;;;;6341425;22;20425;-84
2024/01/22 00:50:12;;;;;;;41.38;5.45;;;10.70;99.90;;;;;;6342057;22;20002;-85
2024/01/22 00:52:38;;;;;;;38.65;5.75;;;10.70;99.90;;;;;;6342962;22;20047;-84
2024/01/22 00:55:04;;;;;;;33.33;3.75;;;10.70;99.90;;;;;;6342792;22;20003;-84
2024/01/22 00:57:29;;;;;;;23.40;4.82;;;10.60;99.90;;;;;;6342602;22;20017;-87
2024/01/22 00:59:55;;;;;;;27.92;5.18;;;10.60;99.90;;;;;;6370429;22;20042;-87
2024/01/22 01:02:21;;;;;;;13.35;3.50;;;10.60;99.90;;;;;;6342685;22;20420;-87
2024/01/22 01:04:46;;;;;;;23.17;3.92;;;10.50;99.90;;;;;;6341370;22;20013;-86
2024/01/22 01:07:12;;;;;;;13.27;2.33;;;10.50;99.90;;;;;;6341805;22;20085;-86
2024/01/22 01:09:38;;;;;;;14.27;2.30;;;10.50;99.90;;;;;;6342095;22;20002;-86
2024/01/22 01:12:04;;;;;;;14.95;2.58;;;10.40;99.90;;;;;;6342005;22;20009;-86
2024/01/22 01:14:30;;;;;;;18.05;2.92;;;10.30;99.90;;;;;;6342175;22;20006;-85
2024/01/22 01:16:58;;;;;;;19.98;3.35;;;10.20;99.90;;;;;;6369511;22;20078;-86
2024/01/22 01:19:24;;;;;;;24.55;3.65;;;10.20;99.90;;;;;;6341479;22;20762;-85
2024/01/22 01:21:51;;;;;;;24.92;3.40;;;10.10;99.90;;;;;;6341927;22;20006;-86
2024/01/22 01:24:17;;;;;;;17.17;3.50;;;10.10;99.90;;;;;;6341127;22;20010;-86
2024/01/22 01:26:43;;;;;;;16.83;2.78;;;10.00;99.90;;;;;;6342158;22;20006;-87
2024/01/22 01:29:09;;;;;;;14.23;2.63;;;9.90;99.90;;;;;;6341480;22;20006;-87
2024/01/22 01:31:35;;;;;;;21.77;3.25;;;9.90;99.90;;;;;;6340965;22;20036;-86
2024/01/22 01:34:01;;;;;;;16.55;2.92;;;9.80;99.90;;;;;;6342663;22;20038;-87
2024/01/22 01:36:27;;;;;;;16.10;3.33;;;9.70;99.90;;;;;;6342419;22;20005;-86
2024/01/22 01:38:52;;;;;;;27.02;3.25;;;9.60;99.90;;;;;;6341518;22;20448;-86
2024/01/22 01:41:18;;;;;;;17.73;3.88;;;9.50;99.90;;;;;;6342023;22;20010;-87
2024/01/22 01:43:44;;;;;;;26.98;4.20;;;9.50;99.90;;;;;;6369783;22;20001;-86
2024/01/22 01:46:09;;;;;;;25.58;4.07;;;9.40;99.90;;;;;;6341820;22;20009;-88
2024/01/22 01:48:36;;;;;;;29.88;3.63;;;9.30;99.90;;;;;;6341836;22;20058;-87
2024/01/22 01:51:02;;;;;;;32.35;4.85;;;9.30;99.90;;;;;;6369699;22;20010;-85
2024/01/22 01:53:29;;;;;;;23.15;3.63;;;9.20;99.90;;;;;;6369746;22;20002;-89
2024/01/22 01:55:55;;;;;;;24.30;4.47;;;9.20;99.90;;;;;;6341927;22;20075;-86
2024/01/22 01:58:21;;;;;;;37.33;5.50;;;9.10;99.90;;;;;;6341845;22;20425;-85
2024/01/22 02:00:51;;;;;;;22.63;4.47;;;9.10;99.90;;;;;;6341665;22;20034;-86
2024/01/22 02:03:17;;;;;;;24.85;4.43;;;9.00;99.90;;;;;;6341499;22;19994;-85
2024/01/22 02:05:43;;;;;;;26.05;4.22;;;9.00;99.90;;;;;;6341782;22;20048;-86
2024/01/22 02:08:08;;;;;;;33.13;4.28;;;9.00;99.90;;;;;;6341750;22;20065;-86
2024/01/22 02:10:34;;;;;;;29.85;3.92;;;8.90;99.90;;;;;;6341669;22;20054;-88
2024/01/22 02:13:03;;;;;;;41.45;5.80;;;8.90;99.90;;;;;;6342041;22;20008;-86
2024/01/22 02:15:29;;;;;;;25.10;4.00;;;8.80;99.90;;;;;;6341539;22;20057;-86
2024/01/22 02:18:02;;;;;;;28.23;4.88;;;8.80;99.90;;;;;;6341837;22;20097;-86
2024/01/22 02:20:28;;;;;;;22.45;3.38;;;8.70;99.90;;;;;;6341329;22;20481;-86
2024/01/22 02:22:54;;;;;;;34.72;4.45;;;8.70;99.90;;;;;;6341841;22;20003;-87
2024/01/22 02:25:20;;;;;;;26.20;4.45;;;8.70;99.90;;;;;;6341888;22;20013;-87
2024/01/22 02:27:45;;;;;;;30.13;4.40;;;8.60;99.90;;;;;;6369508;22;19998;-86
2024/01/22 02:30:12;;;;;;;24.95;4.20;;;8.60;99.90;;;;;;6341640;22;20002;-87
2024/01/22 02:32:37;;;;;;;23.85;3.90;;;8.60;99.90;;;;;;6369663;22;19998;-87
2024/01/22 02:35:04;;;;;;;25.55;3.47;;;8.60;99.90;;;;;;6341587;22;20291;-87
2024/01/22 02:37:29;;;;;;;36.70;4.75;;;8.60;99.90;;;;;;6369524;22;20006;-87
2024/01/22 02:39:55;;;;;;;35.67;4.57;;;8.50;99.90;;;;;;6341333;22;20062;-86
2024/01/22 02:42:21;;;;;;;34.08;6.30;;;8.50;99.90;;;;;;6341575;22;20056;-87
2024/01/22 02:44:46;;;;;;;30.38;4.10;;;8.50;99.90;;;;;;6341859;22;20006;-85
2024/01/22 02:47:12;;;;;;;48.08;6.72;;;8.50;99.90;;;;;;6341742;22;20010;-85
2024/01/22 02:49:38;;;;;;;16.95;3.33;;;8.50;99.90;;;;;;6341781;22;20329;-86
2024/01/22 02:52:04;;;;;;;30.90;4.32;;;8.50;99.90;;;;;;6341974;22;20056;-85
2024/01/22 02:54:30;;;;;;;19.52;3.10;;;8.40;99.90;;;;;;6341826;22;20002;-88
2024/01/22 02:56:55;;;;;;;25.52;4.05;;;8.40;99.90;;;;;;6341286;22;20011;-86
2024/01/22 02:59:21;;;;;;;31.70;5.82;;;8.40;99.90;;;;;;6341546;22;20379;-85
2024/01/22 03:01:47;;;;;;;25.25;4.80;;;8.40;99.90;;;;;;6341886;22;20006;-85
2024/01/22 03:04:12;;;;;;;19.77;3.50;;;8.30;99.90;;;;;;6341907;22;20002;-86
2024/01/22 03:06:38;;;;;;;25.30;3.10;;;8.30;99.90;;;;;;6342006;22;20052;-85
2024/01/22 03:09:05;;;;;;;29.42;3.47;;;8.30;99.90;;;;;;6342202;22;20060;-85
2024/01/22 03:11:31;;;;;;;22.17;3.28;;;8.20;99.90;;;;;;6341425;22;20002;-85
2024/01/22 03:13:56;;;;;;;16.55;2.80;;;8.20;99.90;;;;;;6341942;22;20005;-85
2024/01/22 03:16:22;;;;;;;23.92;3.17;;;8.20;99.90;;;;;;6341613;22;20383;-87
2024/01/22 03:18:48;;;;;;;26.33;2.58;;;8.10;99.90;;;;;;6341108;22;20356;-85
2024/01/22 03:21:14;;;;;;;24.10;5.80;;;8.10;99.90;;;;;;6341379;22;20006;-86
2024/01/22 03:23:43;;;;;;;19.52;3.75;;;8.10;99.90;;;;;;6369421;22;20033;-86
2024/01/22 03:26:17;;;;;;;16.33;2.63;;;8.10;99.90;;;;;;6341392;22;20011;-86
2024/01/22 03:28:42;;;;;;;32.88;3.40;;;8.10;99.90;;;;;;6341138;22;20106;-86
2024/01/22 03:31:18;;;;;;;16.02;2.50;;;8.10;99.90;;;;;;6341531;22;20433;-86
2024/01/22 03:33:44;;;;;;;18.40;2.20;;;8.00;99.90;;;;;;6343147;22;20003;-87
2024/01/22 03:36:09;;;;;;;25.90;4.72;;;8.00;99.90;;;;;;6342837;22;20503;-86
2024/01/22 03:38:35;;;;;;;23.02;3.85;;;8.00;99.90;;;;;;6342812;22;20494;-85
2024/01/22 03:41:01;;;;;;;19.52;3.53;;;8.00;99.90;;;;;;6342936;22;20032;-86
2024/01/22 03:43:26;;;;;;;16.60;3.13;;;8.00;99.90;;;;;;6370916;22;20382;-86
2024/01/22 03:45:52;;;;;;;13.43;2.00;;;7.90;99.90;;;;;;6342750;22;20460;-86
2024/01/22 03:48:17;;;;;;;24.52;3.55;;;7.90;99.90;;;;;;6342881;22;19999;-85
2024/01/22 03:50:43;;;;;;;21.02;2.63;;;7.90;99.90;;;;;;6342963;22;20485;-86
2024/01/22 03:53:09;;;;;;;14.50;2.35;;;7.90;99.90;;;;;;6342725;22;20006;-87
2024/01/22 03:55:34;;;;;;;21.48;3.35;;;7.90;99.90;;;;;;6342826;22;20002;-86
2024/01/22 03:58:00;;;;;;;18.88;3.15;;;7.90;99.90;;;;;;6343120;22;20022;-86
2024/01/22 04:00:26;;;;;;;20.60;3.67;;;7.80;99.90;;;;;;6342583;22;20033;-86
2024/01/22 04:02:51;;;;;;;18.63;2.42;;;7.80;99.90;;;;;;6342712;22;19999;-85
2024/01/22 04:05:17;;;;;;;20.27;2.75;;;7.80;99.90;;;;;;6371001;22;20010;-86
2024/01/22 04:07:43;;;;;;;16.85;4.00;;;7.70;99.90;;;;;;6341956;22;20085;-86
2024/01/22 04:10:08;;;;;;;12.57;1.80;;;7.70;99.90;;;;;;6342546;22;20006;-87
2024/01/22 04:12:35;;;;;;;21.73;3.20;;;7.70;99.90;;;;;;6342775;22;20030;-87
2024/01/22 04:15:01;;;;;;;23.05;2.72;;;7.60;99.90;;;;;;6342592;22;20341;-86
2024/01/22 04:17:26;;;;;;;16.23;2.15;;;7.60;99.90;;;;;;6342534;22;20017;-87
2024/01/22 04:19:52;;;;;;;18.50;2.50;;;7.60;99.90;;;;;;6342351;22;20410;-86
2024/01/22 04:22:18;;;;;;;15.70;2.42;;;7.60;99.90;;;;;;6342759;22;20426;-86
2024/01/22 04:24:43;;;;;;;14.93;2.47;;;7.50;99.90;;;;;;6342597;22;20007;-86
2024/01/22 04:27:09;;;;;;;20.23;2.88;;;7.50;99.90;;;;;;6342608;22;20329;-86
2024/01/22 04:29:35;;;;;;;14.27;2.20;;;7.50;99.90;;;;;;6342378;22;20006;-86
2024/01/22 04:32:01;;;;;;;22.15;3.10;;;7.50;99.90;;;;;;6342071;22;20006;-86
2024/01/22 04:34:26;;;;;;;20.92;3.92;;;7.50;99.90;;;;;;6342476;22;20030;-86
2024/01/22 04:36:52;;;;;;;19.20;2.38;;;7.50;99.90;;;;;;6342508;22;20515;-85
2024/01/22 04:39:19;;;;;;;21.67;3.20;;;7.50;99.90;;;;;;6370456;22;20485;-85
2024/01/22 04:41:47;;;;;;;23.48;3.67;;;7.50;99.90;;;;;;6342286;22;20444;-87
2024/01/22 04:44:12;;;;;;;20.80;3.17;;;7.50;99.90;;;;;;6341720;22;20010;-87
2024/01/22 04:46:38;;;;;;;13.90;2.60;;;7.50;99.90;;;;;;6342839;22;20388;-85
2024/01/22 04:49:04;;;;;;;18.73;2.67;;;7.50;99.90;;;;;;6342678;22;20010;-87
2024/01/22 04:51:29;;;;;;;23.50;3.70;;;7.50;99.90;;;;;;6316485;22;20006;-87
2024/01/22 04:53:55;;;;;;;15.82;2.92;;;7.40;99.90;;;;;;6342452;22;20426;-85
2024/01/22 04:56:20;;;;;;;18.98;2.78;;;7.40;99.90;;;;;;6342234;22;20425;-90
2024/01/22 04:58:46;;;;;;;13.32;2.25;;;7.40;99.90;;;;;;6342418;22;20394;-86
2024/01/22 05:01:13;;;;;;;15.57;3.35;;;7.40;99.90;;;;;;6343926;22;20375;-85
2024/01/22 05:03:38;;;;;;;24.63;3.78;;;7.40;99.90;;;;;;6342475;22;20026;-85
2024/01/22 05:06:04;;;;;;;16.02;3.08;;;7.30;99.90;;;;;;6342280;22;20018;-85
2024/01/22 05:08:30;;;;;;;18.80;2.92;;;7.30;99.90;;;;;;6370073;22;20022;-85
2024/01/22 05:10:55;;;;;;;24.05;3.17;;;7.30;99.90;;;;;;6342049;22;20081;-85
2024/01/22 05:13:22;;;;;;;15.55;2.55;;;7.30;99.90;;;;;;6342239;22;20003;-86
2024/01/22 05:15:48;;;;;;;21.33;2.63;;;7.30;99.90;;;;;;6342006;22;20469;-87
2024/01/22 05:18:14;;;;;;;18.45;2.40;;;7.30;99.90;;;;;;6342133;22;20013;-86
2024/01/22 05:20:40;;;;;;;27.58;3.58;;;7.30;99.90;;;;;;6341909;22;20010;-86
2024/01/22 05:23:05;;;;;;;29.77;4.30;;;7.30;99.90;;;;;;6342192;22;20005;-85
2024/01/22 05:25:32;;;;;;;29.50;3.50;;;7.30;99.90;;;;;;6341960;22;20414;-85
2024/01/22 05:27:57;;;;;;;21.83;4.63;;;7.30;99.90;;;;;;6341977;22;20003;-85
2024/01/22 05:30:23;;;;;;;22.90;3.83;;;7.30;99.90;;;;;;6342036;22;20314;-86
2024/01/22 05:32:50;;;;;;;23.17;3.33;;;7.30;99.90;;;;;;6341799;22;20493;-84
2024/01/22 05:35:16;;;;;;;15.50;2.25;;;7.30;99.90;;;;;;6341972;22;20433;-86
2024/01/22 05:37:42;;;;;;;22.77;3.63;;;7.30;99.90;;;;;;6369565;22;19998;-84
2024/01/22 05:40:13;;;;;;;19.25;3.45;;;7.30;99.90;;;;;;6341554;22;20093;-85
2024/01/22 05:42:39;;;;;;;23.48;3.65;;;7.30;99.90;;;;;;6341808;22;20002;-85
2024/01/22 05:45:05;;;;;;;16.70;2.70;;;7.30;99.90;;;;;;6341642;22;20043;-84
2024/01/22 05:47:32;;;;;;;18.38;3.17;;;7.30;99.90;;;;;;6341920;22;20002;-85
2024/01/22 05:49:58;;;;;;;20.17;3.13;;;7.30;99.90;;;;;;6369870;22;20010;-87
2024/01/22 05:52:24;;;;;;;17.10;3.15;;;7.30;99.90;;;;;;6369636;22;20598;-85
2024/01/22 05:54:52;;;;;;;31.10;3.60;;;7.30;99.90;;;;;;6341571;22;20585;-85
2024/01/22 05:57:18;;;;;;;14.40;2.42;;;7.30;99.90;;;;;;6341330;22;20037;-84
2024/01/22 05:59:44;;;;;;;9.65;2.25;;;7.20;99.90;;;;;;6341662;22;20010;-84
2024/01/22 06:02:11;;;;;;;18.25;3.03;;;7.20;99.90;;;;;;6341724;22;20085;-87
2024/01/22 06:04:37;;;;;;;30.67;4.07;;;7.20;99.90;;;;;;6341623;22;20081;-85
2024/01/22 06:07:03;;;;;;;20.60;3.92;;;7.20;99.90;;;;;;6341683;22;20037;-85
2024/01/22 06:09:29;;;;;;;16.13;3.13;;;7.10;99.90;;;;;;6341402;22;20014;-85
2024/01/22 06:11:55;;;;;;;13.45;2.35;;;7.10;99.90;;;;;;6341794;22;20026;-85
2024/01/22 06:14:20;;;;;;;16.77;2.38;;;7.00;99.90;;;;;;6341857;22;20006;-85
2024/01/22 06:16:46;;;;;;;25.30;2.92;;;7.00;99.90;;;;;;6341891;22;19998;-84
2024/01/22 06:19:12;;;;;;;14.80;1.98;;;7.00;99.90;;;;;;6341190;22;20010;-84
2024/01/22 06:21:38;;;;;;;18.77;3.03;;;7.00;99.90;;;;;;6341324;22;20009;-84
2024/01/22 06:24:04;;;;;;;15.93;1.60;;;7.00;99.90;;;;;;6341443;22;20437;-85
2024/01/22 06:26:29;;;;;;;17.17;2.78;;;7.00;99.90;;;;;;6341512;22;20029;-84
2024/01/22 06:28:57;;;;;;;18.30;2.85;;;7.00;99.90;;;;;;6341306;22;20085;-84
2024/01/22 06:31:22;;;;;;;27.45;4.88;;;7.00;99.90;;;;;;6341251;22;20030;-84
2024/01/22 06:33:49;;;;;;;15.48;2.60;;;7.00;99.90;;;;;;6341575;22;20333;-84
2024/01/22 06:36:15;;;;;;;18.73;2.33;;;7.00;99.90;;;;;;6315934;22;20433;-84
2024/01/22 06:38:41;;;;;;;14.13;2.53;;;7.00;99.90;;;;;;6341577;22;20006;-84
2024/01/22 06:41:11;;;;;;;19.60;2.30;;;7.00;99.90;;;;;;6368712;22;20313;-83
2024/01/22 06:43:38;;;;;;;13.88;2.28;;;7.00;99.90;;;;;;6341897;22;20031;-84
2024/01/22 06:46:04;;;;;;;26.17;2.60;;;7.10;99.90;;;;;;6342019;22;20006;-84
2024/01/22 06:48:29;;;;;;;19.35;2.53;;;7.00;99.90;;;;;;6342050;22;20438;-84
2024/01/22 06:50:55;;;;;;;24.48;3.33;;;7.00;99.90;;;;;;6342420;22;20082;-85
2024/01/22 06:53:20;;;;;;;20.35;2.50;;;7.00;99.90;;;;;;6340841;22;20429;-86
2024/01/22 06:55:46;;;;;;;11.13;2.08;;;7.00;99.90;;;;;;6341486;22;20404;-86
2024/01/22 06:58:13;;;;;;;19.83;2.75;;;7.00;99.90;;;;;;6341109;22;20021;-85
2024/01/22 07:00:39;;;;;;;15.10;2.88;;;6.90;99.90;;;;;;6369162;22;20093;-85
2024/01/22 07:03:04;;;;;;;22.35;3.17;;;6.90;99.90;;;;;;6341313;22;20448;-86
2024/01/22 07:05:31;;;;;;;17.33;2.70;;;6.90;99.90;;;;;;6341519;22;20026;-85
2024/01/22 07:07:58;;;;;;;19.45;2.78;;;6.90;99.90;;;;;;6343090;22;20154;-86
2024/01/22 07:10:24;;;;;;;26.42;4.25;;;6.90;99.90;;;;;;6371292;22;20003;-84
2024/01/22 07:12:49;;;;;;;8.93;1.52;;;6.90;99.90;;;;;;6343430;22;20056;-85
2024/01/22 07:15:15;;;;;;;22.58;2.97;;;6.90;99.90;;;;;;6343381;22;20282;-84
2024/01/22 07:17:41;;;;;;;14.50;2.55;;;6.90;99.90;;;;;;6342890;22;20006;-84
2024/01/22 07:20:17;;;;;;;12.02;2.15;;;6.80;99.90;;;;;;6342921;22;20013;-84
2024/01/22 07:22:43;;;;;;;19.98;2.70;;;6.80;99.90;;;;;;6371066;22;20303;-85
2024/01/22 07:25:16;;;;;;;15.10;2.30;;;6.80;99.90;;;;;;6343379;22;20047;-84
2024/01/22 07:27:42;;;;;;;19.33;3.13;;;6.80;99.90;;;;;;6371932;22;20093;-84
2024/01/22 07:30:13;;;;;;;11.85;2.47;;;6.80;99.90;;;;;;6343705;22;20326;-85
2024/01/22 07:32:57;;;;;;;18.38;3.08;;;6.80;99.90;;;;;;6345235;22;20329;-84
2024/01/22 07:35:24;;;;;;;19.85;2.13;;;6.80;99.90;;;;;;6340858;22;20106;-86
2024/01/22 07:37:52;;;;;;;30.45;3.30;;;6.80;99.90;;;;;;6340742;22;20010;-84
2024/01/22 07:40:28;;;;;;;17.15;2.67;;;6.80;99.90;;;;;;6342066;22;20010;-85
2024/01/22 07:42:55;;;;;;;20.67;2.58;;;6.80;99.90;;;;;;6316908;22;20014;-85
2024/01/22 07:45:21;;;;;;;21.77;3.17;;;6.70;99.90;;;;;;6317219;22;20002;-85
2024/01/22 07:47:50;;;;;;;17.83;2.17;;;6.70;99.90;;;;;;6343321;22;20310;-85
2024/01/22 07:50:16;;;;;;;20.30;3.35;;;6.70;99.90;;;;;;6318029;22;20364;-85
2024/01/22 07:52:42;;;;;;;12.77;1.88;;;6.60;99.90;;;;;;6343315;22;20002;-85
2024/01/22 07:55:13;;;;;;;19.08;2.42;;;6.60;99.90;;;;;;6343311;22;20425;-85
2024/01/22 07:57:39;;;;;;;17.60;2.70;;;6.50;99.90;;;;;;6341518;22;20353;-85
2024/01/22 08:00:11;;;;;;;14.18;3.03;;;6.60;99.90;;;;;;6370288;22;20094;-87
2024/01/22 08:02:39;;;;;;;18.35;2.38;;;6.60;99.90;;;;;;6342976;22;20003;-85
2024/01/22 08:05:05;;;;;;;11.30;2.30;;;6.60;99.90;;;;;;6370416;22;20007;-85
2024/01/22 08:07:33;;;;;;;19.92;1.85;;;6.60;99.90;;;;;;6371340;22;20010;-86
2024/01/22 08:09:59;;;;;;;20.38;2.70;;;6.60;99.90;;;;;;6343084;22;19994;-85
2024/01/22 08:12:24;;;;;;;18.50;2.28;;;6.60;99.90;;;;;;6342802;22;20097;-85
2024/01/22 08:14:50;;;;;;;16.38;2.90;;;6.50;99.90;;;;;;6371054;22;20006;-87
2024/01/22 08:17:16;;;;;;;11.57;1.73;;;6.50;99.90;;;;;;6341073;22;20059;-87
2024/01/22 08:19:42;;;;;;;21.33;2.20;;;6.50;99.90;;;;;;6370397;22;20148;-86
2024/01/22 08:22:07;;;;;;;18.70;2.70;;;6.50;99.90;;;;;;6342115;22;20123;-86
2024/01/22 08:24:35;;;;;;;19.05;2.97;;;6.50;99.90;;;;;;6369947;22;20363;-86
2024/01/22 08:27:01;;;;;;;10.75;1.52;;;6.50;99.90;;;;;;6369530;22;20002;-87
2024/01/22 08:29:27;;;;;;;25.88;3.58;;;6.50;99.90;;;;;;6341699;22;20494;-85
2024/01/22 08:31:53;;;;;;;20.38;3.03;;;6.40;99.90;;;;;;6342361;22;19994;-85
2024/01/22 08:34:19;;;;;;;19.52;2.60;;;6.40;99.90;;;;;;6370473;22;20055;-86
2024/01/22 08:36:45;;;;;;;16.23;3.30;;;6.40;99.90;;;;;;6342289;22;20084;-87
2024/01/22 08:39:10;;;;;;;14.55;1.92;;;6.40;99.90;;;;;;6342464;22;20010;-87
2024/01/22 08:41:39;;;;;;;16.63;2.90;;;6.40;99.90;;;;;;6342175;22;19998;-87
2024/01/22 08:44:05;;;;;;;11.63;2.30;;;6.40;99.90;;;;;;6342995;22;20056;-85
2024/01/22 08:46:32;;;;;;;12.52;1.80;;;6.50;99.90;;;;;;6343081;22;19998;-86
2024/01/22 08:48:58;;;;;;;13.70;2.28;;;6.50;99.90;;;;;;6342916;22;20010;-85
2024/01/22 08:51:23;;;;;;;10.43;2.08;;;6.50;99.90;;;;;;6370394;22;19995;-85
2024/01/22 08:53:49;;;;;;;18.10;2.75;;;6.50;99.90;;;;;;6341025;22;20003;-86
2024/01/22 08:56:15;;;;;;;17.38;2.55;;;6.60;99.90;;;;;;6341766;22;20333;-85
2024/01/22 08:58:41;;;;;;;14.70;1.95;;;6.60;99.90;;;;;;6369895;22;20006;-86
2024/01/22 09:01:06;;;;;;;15.05;2.47;;;6.60;99.90;;;;;;6315111;22;20018;-86
2024/01/22 09:03:33;;;;;;;19.65;2.83;;;6.70;99.90;;;;;;6368406;22;20025;-85
2024/01/22 09:05:59;;;;;;;16.95;2.00;;;6.70;99.90;;;;;;6341591;22;20010;-85
2024/01/22 09:08:26;;;;;;;6.57;1.05;;;6.70;99.90;;;;;;6369992;22;19998;-85
2024/01/22 09:10:52;;;;;;;16.92;3.13;;;6.70;99.90;;;;;;6370146;22;20360;-85
2024/01/22 09:13:17;;;;;;;13.43;1.88;;;6.70;99.90;;;;;;6369967;22;19998;-86
2024/01/22 09:15:43;;;;;;;18.67;2.33;;;6.70;99.90;;;;;;6342191;22;20322;-86
2024/01/22 09:18:09;;;;;;;10.15;2.08;;;6.70;99.90;;;;;;6314640;22;20006;-86
2024/01/22 09:20:35;;;;;;;11.77;1.80;;;6.70;99.90;;;;;;6341963;22;20019;-85
2024/01/22 09:23:01;;;;;;;12.57;2.00;;;6.70;99.90;;;;;;6342041;22;20006;-87
2024/01/22 09:25:27;;;;;;;28.30;3.55;;;6.80;99.90;;;;;;6342294;22;20035;-85
2024/01/22 09:27:53;;;;;;;14.18;2.58;;;6.90;99.90;;;;;;6342298;22;20002;-85
2024/01/22 09:30:19;;;;;;;20.40;2.58;;;6.90;99.90;;;;;;6369875;22;20051;-85
2024/01/22 09:32:44;;;;;;;15.48;2.15;;;6.90;99.90;;;;;;6341851;22;20017;-85
2024/01/22 09:35:10;;;;;;;19.23;2.42;;;7.00;99.90;;;;;;6370037;22;20021;-85
2024/01/22 09:37:36;;;;;;;16.83;2.13;;;7.00;99.90;;;;;;6369973;22;20073;-85
2024/01/22 09:40:01;;;;;;;16.02;1.90;;;7.10;99.90;;;;;;6341532;22;20010;-85
2024/01/22 09:42:29;;;;;;;22.75;2.05;;;7.10;99.90;;;;;;6339700;22;20002;-85
2024/01/22 09:44:56;;;;;;;14.38;2.10;;;7.10;99.90;;;;;;6340876;22;20005;-86
2024/01/22 09:47:22;;;;;;;12.80;2.08;;;7.00;99.90;;;;;;6367425;22;20332;-87
2024/01/22 09:49:49;;;;;;;21.85;3.42;;;7.10;99.90;;;;;;6340032;22;20590;-84
2024/01/22 09:52:16;;;;;;;9.93;1.25;;;7.20;99.90;;;;;;6369094;22;19998;-85
2024/01/22 09:54:43;;;;;;;19.02;2.15;;;7.40;99.90;;;;;;6368924;22;20006;-86
2024/01/22 09:57:16;;;;;;;17.58;2.22;;;7.50;99.90;;;;;;6369067;22;20014;-85
2024/01/22 09:59:43;;;;;;;21.48;3.00;;;7.60;99.90;;;;;;6369548;22;20055;-86
2024/01/22 10:02:19;;;;;;;11.57;2.70;;;7.70;99.90;;;;;;6341733;22;20087;-85
2024/01/22 10:04:45;;;;;;;13.95;2.42;;;7.80;99.90;;;;;;6341978;22;20009;-85
2024/01/22 10:07:15;;;;;;;18.63;2.20;;;7.90;99.90;;;;;;6368807;22;20025;-86
2024/01/22 10:09:43;;;;;;;18.35;3.70;;;7.90;99.90;;;;;;6341558;22;20341;-85
2024/01/22 10:12:09;;;;;;;28.08;5.03;;;7.90;99.90;;;;;;6341616;22;20022;-85
2024/01/22 10:14:35;;;;;;;19.75;2.92;;;7.80;99.90;;;;;;6369971;22;20009;-85
2024/01/22 10:17:20;;;;;;;26.42;5.10;;;7.70;99.90;;;;;;6341732;22;20009;-85
2024/01/22 10:19:48;;;;;;;23.90;3.88;;;7.70;99.90;;;;;;6341718;22;20015;-85
2024/01/22 10:22:21;;;;;;;32.03;5.30;;;7.60;99.90;;;;;;6369304;22;19994;-85
2024/01/22 10:24:59;;;;;;;18.27;3.83;;;7.50;99.90;;;;;;6342326;22;20006;-88
2024/01/22 10:27:26;;;;;;;26.23;3.60;;;7.50;99.90;;;;;;6341942;22;20337;-86
2024/01/22 10:29:51;;;;;;;22.83;3.22;;;7.50;99.90;;;;;;6369337;22;20073;-85
2024/01/22 10:32:24;;;;;;;14.50;2.20;;;7.50;99.90;;;;;;6370516;22;20425;-84
2024/01/22 10:34:53;;;;;;;17.52;2.75;;;7.50;99.90;;;;;;6369476;22;20016;-85
2024/01/22 10:37:19;;;;;;;15.35;2.13;;;7.60;99.90;;;;;;6369599;22;20055;-86
2024/01/22 10:39:48;;;;;;;10.40;2.53;;;7.70;99.90;;;;;;6340717;22;20368;-86
2024/01/22 10:42:16;;;;;;;11.02;1.67;;;7.80;99.90;;;;;;6341562;22;20003;-85
2024/01/22 10:44:50;;;;;;;14.75;2.38;;;7.90;99.90;;;;;;6371397;22;20006;-85
2024/01/22 10:47:23;;;;;;;16.70;3.03;;;8.20;99.90;;;;;;6341535;22;20070;-85
2024/01/22 10:49:51;;;;;;;16.40;2.40;;;8.30;99.90;;;;;;6343904;22;19998;-86
2024/01/22 10:52:18;;;;;;;11.45;1.40;;;8.60;99.90;;;;;;6370562;22;20029;-86
2024/01/22 10:54:44;;;;;;;16.10;2.78;;;8.70;99.90;;;;;;6338904;22;20001;-85
2024/01/22 10:57:39;;;;;;;14.82;2.53;;;8.80;99.90;;;;;;6336155;22;20350;-88
2024/01/22 11:00:07;;;;;;;15.75;2.20;;;8.80;99.90;;;;;;6336571;22;20049;-86
2024/01/22 11:02:35;;;;;;;10.88;1.80;;;8.90;99.90;;;;;;6336725;22;20007;-86
2024/01/22 11:05:11;;;;;;;8.57;1.52;;;8.90;99.90;;;;;;6335738;22;20007;-86
2024/01/22 11:07:39;;;;;;;7.88;1.75;;;9.00;99.90;;;;;;6336359;22;20003;-87
2024/01/22 11:10:10;;;;;;;15.02;2.00;;;9.10;99.90;;;;;;6336750;22;20500;-86
2024/01/22 11:12:48;;;;;;;13.65;3.00;;;9.20;99.90;;;;;;6338553;22;20014;-85
2024/01/22 11:15:37;;;;;;;11.70;2.55;;;9.20;99.90;;;;;;6311940;22;20033;-86
2024/01/22 11:18:04;;;;;;;12.60;1.83;;;9.30;99.90;;;;;;6338430;22;20007;-85
2024/01/22 11:20:31;;;;;;;9.93;1.95;;;9.30;99.90;;;;;;6336531;22;20015;-86
2024/01/22 11:23:05;;;;;;;10.60;1.90;;;9.30;99.90;;;;;;6336910;22;20011;-87
2024/01/22 11:25:34;;;;;;;14.82;1.95;;;9.40;99.90;;;;;;6338800;22;20021;-85
2024/01/22 11:28:12;;;;;;;11.90;2.50;;;9.60;99.90;;;;;;6337576;22;20007;-85
2024/01/22 11:30:42;;;;;;;8.40;1.77;;;9.60;99.90;;;;;;6335931;22;20507;-87
2024/01/22 11:33:26;;;;;;;8.65;1.80;;;9.70;99.80;;;;;;6335517;22;20064;-86
2024/01/22 11:35:52;;;;;;;15.82;2.45;;;9.80;98.90;;;;;;6337406;22;20055;-86
2024/01/22 11:38:53;;;;;;;12.43;1.50;;;9.90;98.30;;;;;;6335544;22;20003;-86
2024/01/22 11:41:32;;;;;;;13.15;2.22;;;10.00;98.20;;;;;;6335303;22;20019;-90
2024/01/22 11:43:58;;;;;;;10.27;1.87;;;10.20;97.80;;;;;;6335621;22;20010;-86
2024/01/22 11:46:25;;;;;;;8.90;1.58;;;10.40;97.60;;;;;;6334998;22;19999;-85
2024/01/22 11:48:53;;;;;;;8.93;1.80;;;10.60;97.30;;;;;;6331705;22;20021;-86
2024/01/22 11:51:27;;;;;;;10.32;1.80;;;10.70;96.10;;;;;;6308981;22;20034;-87
2024/01/22 11:53:55;;;;;;;12.60;2.35;;;10.90;95.80;;;;;;6334470;22;20011;-87
2024/01/22 11:56:21;;;;;;;7.57;1.45;;;11.00;95.40;;;;;;6334794;22;20009;-86
2024/01/22 11:58:48;;;;;;;9.23;1.90;;;11.10;94.70;;;;;;6336347;22;20319;-85
2024/01/22 12:01:13;;;;;;;9.75;1.80;;;11.10;94.10;;;;;;6335559;22;20042;-86
2024/01/22 12:03:39;;;;;;;8.75;1.95;;;11.10;93.50;;;;;;6335583;22;20010;-88
2024/01/22 12:06:07;;;;;;;9.55;1.80;;;11.20;93.60;;;;;;6337823;22;19998;-85
2024/01/22 12:08:36;;;;;;;10.45;1.92;;;11.20;93.50;;;;;;6335038;22;20010;-86
2024/01/22 12:11:15;;;;;;;14.48;2.35;;;11.30;93.60;;;;;;6335666;22;20013;-86
2024/01/22 12:13:43;;;;;;;9.60;1.35;;;11.30;93.30;;;;;;6335297;22;20003;-85
2024/01/22 12:16:15;;;;;;;16.77;2.75;;;11.30;93.40;;;;;;6335964;22;20102;-87
2024/01/22 12:18:41;;;;;;;13.43;2.15;;;11.30;93.80;;;;;;6335392;22;20078;-86
2024/01/22 12:21:10;;;;;;;11.98;2.22;;;11.10;93.70;;;;;;6337122;22;20358;-87
2024/01/22 12:23:36;;;;;;;21.60;3.08;;;10.70;94.10;;;;;;6334982;22;19995;-86
2024/01/22 12:26:03;;;;;;;13.90;2.78;;;10.40;94.60;;;;;;6335184;22;20006;-86
2024/01/22 12:28:29;;;;;;;22.10;3.30;;;10.00;95.50;;;;;;6335043;22;19999;-85
2024/01/22 12:31:01;;;;;;;13.18;2.55;;;9.60;96.40;;;;;;6336540;22;20287;-86
2024/01/22 12:33:29;;;;;;;13.98;2.92;;;9.40;97.50;;;;;;6337077;22;20010;-86
2024/01/22 12:36:11;;;;;;;20.83;3.20;;;9.20;98.30;;;;;;6337130;22;20022;-85
2024/01/22 12:38:53;;;;;;;21.15;3.15;;;9.20;99.10;;;;;;6335317;22;19999;-86
2024/01/22 12:41:20;;;;;;;15.95;2.80;;;9.50;99.80;;;;;;6336637;22;20018;-85
2024/01/22 12:43:46;;;;;;;12.68;2.30;;;9.90;99.70;;;;;;6336833;22;20003;-86
2024/01/22 12:46:15;;;;;;;9.57;2.45;;;10.40;98.70;;;;;;6336776;22;20451;-87